Time;durP1;ratioP1;P1;durP2;ratioP2;P2;SDS_P1;SDS_P2;PMS_P1;PMS_P2;Temp;Humidity;BMP_temperature;BMP_pressure;BME280_temperature;BME280_humidity;BME280_pressure;Samples;Min_cycle;Max_cycle;Signal;HPM_P1;HPM_P2
2022/01/09 00:01:42;;;;;;;0.50;0.50;;;6.70;99.90;;;;;;5034361;28;20449;-63
2022/01/09 00:04:09;;;;;;;0.40;0.40;;;6.70;99.90;;;;;;5034418;28;20454;-63
2022/01/09 00:06:35;;;;;;;0.70;0.60;;;6.70;99.90;;;;;;5034290;28;20460;-63
2022/01/09 00:09:02;;;;;;;0.70;0.40;;;6.70;99.90;;;;;;5033875;28;20941;-63
2022/01/09 00:11:29;;;;;;;1.00;0.80;;;6.60;99.90;;;;;;5034018;28;20493;-64
2022/01/09 00:13:57;;;;;;;0.40;0.40;;;6.60;99.90;;;;;;5033794;28;20474;-63
2022/01/09 00:16:24;;;;;;;0.97;0.50;;;6.60;99.90;;;;;;5034225;28;20501;-63
2022/01/09 00:18:52;;;;;;;0.40;0.30;;;6.60;99.90;;;;;;5034155;28;20449;-63
2022/01/09 00:21:19;;;;;;;1.50;0.50;;;6.60;99.90;;;;;;5033572;28;20925;-62
2022/01/09 00:23:46;;;;;;;0.40;0.40;;;6.60;99.90;;;;;;5033979;28;20524;-63
2022/01/09 00:26:14;;;;;;;0.53;0.37;;;6.60;99.90;;;;;;5033967;28;20430;-63
2022/01/09 00:28:41;;;;;;;0.87;0.40;;;6.50;99.90;;;;;;5033813;28;20496;-63
2022/01/09 00:31:08;;;;;;;0.50;0.40;;;6.50;99.90;;;;;;5034109;28;20446;-62
2022/01/09 00:33:34;;;;;;;0.50;0.30;;;6.60;99.90;;;;;;5033672;28;20493;-63
2022/01/09 00:36:03;;;;;;;0.80;0.47;;;6.50;99.90;;;;;;5033499;28;20449;-62
2022/01/09 00:38:29;;;;;;;0.60;0.30;;;6.50;99.90;;;;;;5033874;28;20547;-62
2022/01/09 00:40:56;;;;;;;1.07;0.40;;;6.50;99.90;;;;;;5033243;28;20442;-62
2022/01/09 00:43:23;;;;;;;0.63;0.57;;;6.50;99.90;;;;;;5033643;28;20458;-62
2022/01/09 00:45:49;;;;;;;0.77;0.50;;;6.50;99.90;;;;;;5033630;28;20462;-62
2022/01/09 00:48:16;;;;;;;0.57;0.57;;;6.50;99.90;;;;;;5033639;28;20451;-62
2022/01/09 00:50:43;;;;;;;0.90;0.53;;;6.60;99.90;;;;;;5033690;28;20446;-62
2022/01/09 00:53:11;;;;;;;0.67;0.67;;;6.60;99.90;;;;;;5033297;28;20917;-62
2022/01/09 00:55:38;;;;;;;1.70;0.57;;;6.70;99.90;;;;;;5033506;28;20451;-62
2022/01/09 00:58:05;;;;;;;0.77;0.70;;;6.80;99.90;;;;;;5033744;28;20442;-62
2022/01/09 01:00:35;;;;;;;1.23;0.40;;;6.80;99.90;;;;;;5033305;28;20948;-62
2022/01/09 01:03:02;;;;;;;1.00;0.53;;;6.80;99.90;;;;;;5033435;28;20462;-63
2022/01/09 01:05:29;;;;;;;0.50;0.50;;;6.90;99.90;;;;;;5033433;28;20455;-62
2022/01/09 01:07:56;;;;;;;2.10;0.60;;;7.00;99.90;;;;;;5033582;28;20443;-62
2022/01/09 01:10:24;;;;;;;0.50;0.40;;;7.00;99.90;;;;;;5033827;28;20447;-62
2022/01/09 01:12:51;;;;;;;1.90;1.10;;;7.00;99.90;;;;;;5034051;28;20988;-62
2022/01/09 01:15:18;;;;;;;1.07;1.00;;;7.00;99.90;;;;;;5033867;28;20446;-62
2022/01/09 01:17:45;;;;;;;0.80;0.80;;;7.10;99.90;;;;;;5033233;28;20477;-62
2022/01/09 01:20:13;;;;;;;1.90;0.90;;;7.10;99.90;;;;;;5033016;28;20933;-62
2022/01/09 01:22:40;;;;;;;1.10;1.00;;;7.10;99.90;;;;;;5032857;28;20486;-62
2022/01/09 01:25:08;;;;;;;1.60;1.50;;;7.10;99.90;;;;;;5033131;28;20437;-62
2022/01/09 01:27:36;;;;;;;2.07;1.50;;;7.10;99.90;;;;;;5032926;28;20944;-62
2022/01/09 01:30:03;;;;;;;2.53;1.53;;;7.10;99.90;;;;;;5033211;28;20454;-62
2022/01/09 01:32:30;;;;;;;1.83;1.73;;;7.10;99.90;;;;;;5032697;28;20817;-62
2022/01/09 01:34:57;;;;;;;3.23;2.57;;;7.10;99.90;;;;;;5032976;28;20584;-62
2022/01/09 01:37:57;;;;;;;2.83;2.63;;;7.00;99.90;;;;;;5032767;28;20455;-62
2022/01/09 01:40:24;;;;;;;4.03;3.27;;;7.10;99.90;;;;;;5033094;28;20415;-62
2022/01/09 01:42:52;;;;;;;3.20;3.00;;;7.00;99.90;;;;;;5033580;28;20477;-62
2022/01/09 01:45:19;;;;;;;3.80;3.50;;;6.90;99.90;;;;;;5032966;28;20447;-62
2022/01/09 01:47:46;;;;;;;2.83;2.57;;;6.90;99.90;;;;;;5032889;28;20469;-62
2022/01/09 01:50:14;;;;;;;2.53;2.33;;;6.90;99.90;;;;;;5032878;28;20545;-62
2022/01/09 01:52:46;;;;;;;2.00;1.90;;;6.80;99.90;;;;;;5033465;28;20462;-62
2022/01/09 01:55:15;;;;;;;3.53;1.43;;;6.80;99.90;;;;;;5036377;28;20924;-62
2022/01/09 01:57:44;;;;;;;1.13;1.07;;;6.60;99.90;;;;;;5036539;28;20446;-62
2022/01/09 02:00:15;;;;;;;4.10;0.90;;;6.60;99.90;;;;;;5037342;28;20449;-62
2022/01/09 02:02:42;;;;;;;0.90;0.70;;;6.40;99.90;;;;;;5036120;28;20473;-62
2022/01/09 02:05:09;;;;;;;1.03;0.60;;;6.30;99.90;;;;;;5036413;28;20460;-61
2022/01/09 02:07:38;;;;;;;1.20;0.50;;;6.20;99.90;;;;;;5036030;28;20936;-62
2022/01/09 02:10:08;;;;;;;1.80;0.73;;;6.10;99.90;;;;;;5036660;28;20435;-62
2022/01/09 02:12:37;;;;;;;3.13;0.60;;;6.00;99.90;;;;;;5036434;28;20815;-62
2022/01/09 02:15:19;;;;;;;1.80;0.93;;;6.00;99.90;;;;;;5036176;28;20485;-61
2022/01/09 02:17:47;;;;;;;1.47;1.00;;;6.00;99.90;;;;;;5036493;28;20446;-62
2022/01/09 02:20:15;;;;;;;1.10;0.63;;;6.00;99.90;;;;;;5036120;28;20446;-62
2022/01/09 02:22:42;;;;;;;2.30;0.83;;;5.90;99.90;;;;;;5035927;28;20482;-62
2022/01/09 02:25:10;;;;;;;2.60;0.80;;;5.90;99.90;;;;;;5036102;28;20445;-62
2022/01/09 02:27:38;;;;;;;5.03;0.80;;;5.90;99.90;;;;;;5035953;28;20446;-61
2022/01/09 02:30:07;;;;;;;7.00;1.20;;;5.90;99.90;;;;;;5035673;28;20834;-61
2022/01/09 02:32:34;;;;;;;6.17;1.50;;;5.80;99.90;;;;;;5035948;28;20466;-62
2022/01/09 02:35:00;;;;;;;4.67;1.33;;;5.80;99.90;;;;;;5035895;28;20470;-61
2022/01/09 02:37:28;;;;;;;7.20;1.80;;;5.80;99.90;;;;;;5035790;28;20450;-61
2022/01/09 02:39:55;;;;;;;10.27;2.23;;;5.80;99.90;;;;;;5035987;28;20473;-62
2022/01/09 02:42:26;;;;;;;7.37;2.63;;;5.80;99.90;;;;;;5035381;28;20470;-62
2022/01/09 02:44:55;;;;;;;8.37;1.97;;;5.80;99.90;;;;;;5035440;28;20881;-62
2022/01/09 02:47:22;;;;;;;9.67;2.50;;;5.80;99.90;;;;;;5035948;28;20450;-61
2022/01/09 02:49:51;;;;;;;11.67;2.80;;;5.80;99.90;;;;;;5036176;28;20538;-61
2022/01/09 02:52:29;;;;;;;12.47;3.03;;;5.80;99.90;;;;;;5035452;28;20466;-62
2022/01/09 02:55:14;;;;;;;10.40;2.43;;;5.90;99.90;;;;;;5035247;28;20972;-62
2022/01/09 02:57:42;;;;;;;8.30;2.93;;;5.90;99.90;;;;;;5035608;28;20427;-61
2022/01/09 03:00:11;;;;;;;10.83;2.93;;;5.90;99.90;;;;;;5035385;28;20450;-62
2022/01/09 03:02:38;;;;;;;16.23;3.23;;;5.90;99.90;;;;;;5035383;28;20513;-62
2022/01/09 03:05:06;;;;;;;14.37;3.20;;;6.00;99.90;;;;;;5034548;28;20856;-62
2022/01/09 03:07:33;;;;;;;10.97;2.53;;;6.00;99.90;;;;;;5035287;28;20450;-62
2022/01/09 03:10:01;;;;;;;19.87;3.93;;;5.90;99.90;;;;;;5035246;28;20438;-61
2022/01/09 03:12:28;;;;;;;13.10;2.17;;;6.00;99.90;;;;;;5035487;28;20839;-62
2022/01/09 03:14:54;;;;;;;16.20;3.33;;;6.00;99.90;;;;;;5034985;28;20474;-62
2022/01/09 03:17:21;;;;;;;9.00;3.17;;;6.00;99.90;;;;;;5035114;28;20853;-62
2022/01/09 03:19:48;;;;;;;12.57;3.27;;;6.00;99.90;;;;;;5035090;28;20442;-61
2022/01/09 03:22:15;;;;;;;8.47;2.70;;;6.00;99.90;;;;;;5034523;28;21014;-62
2022/01/09 03:24:42;;;;;;;8.97;2.77;;;6.00;99.90;;;;;;5034698;28;20411;-62
2022/01/09 03:27:10;;;;;;;21.83;2.83;;;6.00;99.90;;;;;;5034858;28;20450;-62
2022/01/09 03:29:38;;;;;;;18.80;3.37;;;6.00;99.90;;;;;;5034948;28;20435;-62
2022/01/09 03:32:05;;;;;;;15.27;3.67;;;6.00;99.90;;;;;;5034387;28;21015;-63
2022/01/09 03:34:32;;;;;;;14.30;3.57;;;6.10;99.90;;;;;;5034570;28;20493;-62
2022/01/09 03:36:59;;;;;;;16.33;4.07;;;6.10;99.90;;;;;;5034664;28;20450;-62
2022/01/09 03:39:26;;;;;;;20.30;4.17;;;6.10;99.90;;;;;;5034628;28;20462;-62
2022/01/09 03:41:56;;;;;;;23.13;7.10;;;6.10;99.90;;;;;;5034489;28;20466;-62
2022/01/09 03:44:24;;;;;;;16.73;5.23;;;6.20;99.90;;;;;;5034564;28;20458;-62
2022/01/09 03:46:51;;;;;;;22.73;6.20;;;6.10;99.90;;;;;;5034463;28;20454;-62
2022/01/09 03:49:17;;;;;;;29.10;8.30;;;6.10;99.90;;;;;;5034142;28;20454;-62
2022/01/09 03:51:47;;;;;;;18.80;6.20;;;6.20;99.90;;;;;;5034346;28;20454;-62
2022/01/09 03:54:14;;;;;;;28.17;7.93;;;6.20;99.90;;;;;;5034298;28;20485;-62
2022/01/09 03:56:40;;;;;;;28.63;7.50;;;6.20;99.90;;;;;;5034505;28;20449;-61
2022/01/09 03:59:07;;;;;;;29.03;9.00;;;6.20;99.90;;;;;;5033942;28;20937;-61
2022/01/09 04:01:35;;;;;;;21.87;6.97;;;6.30;99.90;;;;;;5034221;28;20450;-63
2022/01/09 04:04:02;;;;;;;26.70;6.20;;;6.30;99.90;;;;;;5034210;28;20435;-62
2022/01/09 04:06:28;;;;;;;26.53;6.37;;;6.30;99.90;;;;;;5033791;28;20445;-62
2022/01/09 04:08:56;;;;;;;32.43;7.30;;;6.30;99.90;;;;;;5034003;28;20473;-62
2022/01/09 04:11:28;;;;;;;25.87;6.70;;;6.30;99.90;;;;;;5034062;28;20453;-62
2022/01/09 04:13:54;;;;;;;23.70;7.27;;;6.30;99.90;;;;;;5033934;28;20552;-62
2022/01/09 04:16:21;;;;;;;23.83;6.10;;;6.40;99.90;;;;;;5032928;28;20446;-62
2022/01/09 04:18:49;;;;;;;25.07;6.67;;;6.40;99.90;;;;;;5034188;28;20442;-62
2022/01/09 04:21:16;;;;;;;30.47;7.13;;;6.40;99.90;;;;;;5033828;28;20861;-62
2022/01/09 04:23:43;;;;;;;19.30;6.27;;;6.40;99.90;;;;;;5033673;28;20486;-62
2022/01/09 04:26:10;;;;;;;22.50;5.00;;;6.40;99.90;;;;;;5034023;28;20853;-62
2022/01/09 04:28:36;;;;;;;26.90;6.90;;;6.40;99.90;;;;;;5033565;28;20443;-62
2022/01/09 04:31:03;;;;;;;20.87;6.47;;;6.40;99.90;;;;;;5033746;28;20455;-61
2022/01/09 04:33:30;;;;;;;22.93;5.33;;;6.30;99.90;;;;;;5033714;28;20477;-62
2022/01/09 04:35:58;;;;;;;23.50;5.80;;;6.40;99.90;;;;;;5033390;28;20486;-62
2022/01/09 04:38:25;;;;;;;22.90;5.90;;;6.40;99.90;;;;;;5033631;28;20446;-62
2022/01/09 04:40:51;;;;;;;21.47;4.33;;;6.40;99.90;;;;;;5033571;28;20453;-61
2022/01/09 04:43:19;;;;;;;18.83;4.50;;;6.40;99.90;;;;;;5033840;28;20467;-62
2022/01/09 04:45:46;;;;;;;18.80;4.87;;;6.40;99.90;;;;;;5033365;28;20913;-62
2022/01/09 04:48:14;;;;;;;23.70;5.47;;;6.40;99.90;;;;;;5033455;28;20474;-62
2022/01/09 04:50:43;;;;;;;21.67;4.63;;;6.40;99.90;;;;;;5033474;28;20446;-62
2022/01/09 04:53:12;;;;;;;13.43;4.20;;;6.40;99.90;;;;;;5033428;28;20891;-62
2022/01/09 04:55:41;;;;;;;18.57;4.33;;;6.30;99.90;;;;;;5033326;28;20482;-62
2022/01/09 04:58:08;;;;;;;17.73;4.87;;;6.40;99.90;;;;;;5033372;28;20438;-62
2022/01/09 05:00:35;;;;;;;17.53;5.33;;;6.40;99.90;;;;;;5033028;28;20490;-62
2022/01/09 05:03:02;;;;;;;14.77;5.50;;;6.30;99.90;;;;;;5033336;28;20477;-62
2022/01/09 05:05:29;;;;;;;21.73;5.40;;;6.30;99.90;;;;;;5033341;28;20450;-62
2022/01/09 05:07:56;;;;;;;19.13;5.00;;;6.30;99.90;;;;;;5033253;28;20454;-62
2022/01/09 05:10:24;;;;;;;14.03;3.03;;;6.30;99.90;;;;;;5032988;28;20446;-62
2022/01/09 05:12:52;;;;;;;15.53;4.10;;;6.30;99.90;;;;;;5033221;28;20852;-62
2022/01/09 05:15:19;;;;;;;16.30;3.40;;;6.30;99.90;;;;;;5032865;28;20483;-62
2022/01/09 05:17:46;;;;;;;15.87;3.83;;;6.30;99.90;;;;;;5033214;28;20537;-62
2022/01/09 05:20:14;;;;;;;13.47;3.43;;;6.30;99.90;;;;;;5033311;28;20447;-62
2022/01/09 05:22:40;;;;;;;13.43;3.57;;;6.30;99.90;;;;;;5032702;28;20478;-62
2022/01/09 05:25:08;;;;;;;17.53;5.40;;;6.20;99.90;;;;;;5033138;28;20446;-62
2022/01/09 05:27:37;;;;;;;20.23;4.83;;;6.30;99.90;;;;;;5033612;28;20771;-62
2022/01/09 05:30:06;;;;;;;12.13;4.93;;;6.30;99.90;;;;;;5037413;28;20442;-62
2022/01/09 05:32:33;;;;;;;16.03;3.40;;;6.30;99.90;;;;;;5036942;28;20478;-62
2022/01/09 05:34:59;;;;;;;14.63;3.90;;;6.30;99.90;;;;;;5036610;28;20948;-62
2022/01/09 05:37:26;;;;;;;12.20;3.47;;;6.20;99.90;;;;;;5037004;28;20453;-62
2022/01/09 05:39:53;;;;;;;11.27;3.53;;;6.20;99.90;;;;;;5037139;28;20462;-62
2022/01/09 05:42:19;;;;;;;14.40;2.87;;;6.20;99.90;;;;;;5036528;28;20864;-62
2022/01/09 05:44:48;;;;;;;14.97;3.07;;;6.20;99.90;;;;;;5037678;28;20740;-62
2022/01/09 05:47:14;;;;;;;12.00;2.93;;;6.30;99.90;;;;;;5036786;28;20518;-62
2022/01/09 05:49:41;;;;;;;16.17;3.43;;;6.30;99.90;;;;;;5036792;28;20450;-62
2022/01/09 05:52:08;;;;;;;11.43;3.40;;;6.30;99.90;;;;;;5037058;28;20559;-62
2022/01/09 05:54:35;;;;;;;23.20;3.77;;;6.30;99.90;;;;;;5036670;28;20501;-61
2022/01/09 05:57:02;;;;;;;12.83;2.90;;;6.30;99.90;;;;;;5036206;28;20944;-62
2022/01/09 05:59:28;;;;;;;13.00;3.20;;;6.30;99.90;;;;;;5036784;28;20457;-62
2022/01/09 06:01:57;;;;;;;12.60;4.10;;;6.20;99.90;;;;;;5036149;28;20984;-62
2022/01/09 06:04:25;;;;;;;14.80;2.93;;;6.30;99.90;;;;;;5036098;28;20928;-61
2022/01/09 06:06:52;;;;;;;14.40;3.10;;;6.30;99.90;;;;;;5036446;28;20819;-61
2022/01/09 06:09:19;;;;;;;14.93;3.00;;;6.20;99.90;;;;;;5036274;28;20819;-61
2022/01/09 06:11:45;;;;;;;17.83;3.07;;;6.20;99.90;;;;;;5037175;28;20446;-62
2022/01/09 06:14:12;;;;;;;11.73;2.30;;;6.20;99.90;;;;;;5036701;28;20446;-61
2022/01/09 06:16:39;;;;;;;15.93;3.37;;;6.20;99.90;;;;;;5036624;28;20450;-61
2022/01/09 06:19:07;;;;;;;9.80;2.40;;;6.10;99.90;;;;;;5036405;28;20438;-61
2022/01/09 06:21:34;;;;;;;15.27;2.97;;;6.10;99.90;;;;;;5036337;28;20454;-62
2022/01/09 06:24:00;;;;;;;7.50;2.63;;;6.20;99.90;;;;;;5036150;28;20462;-61
2022/01/09 06:26:27;;;;;;;7.37;2.50;;;6.20;99.90;;;;;;5036103;28;20807;-61
2022/01/09 06:28:54;;;;;;;12.23;3.40;;;6.20;99.90;;;;;;5036399;28;20443;-61
2022/01/09 06:31:21;;;;;;;13.37;3.20;;;6.20;99.90;;;;;;5036112;28;20459;-61
2022/01/09 06:33:47;;;;;;;13.57;3.90;;;6.20;99.90;;;;;;5036164;28;20561;-62
2022/01/09 06:36:15;;;;;;;11.67;3.23;;;6.20;99.90;;;;;;5035949;28;20486;-62
2022/01/09 06:38:42;;;;;;;8.70;3.07;;;6.20;99.90;;;;;;5035358;28;20446;-61
2022/01/09 06:41:09;;;;;;;16.53;3.60;;;6.20;99.90;;;;;;5035104;28;20451;-61
2022/01/09 06:43:36;;;;;;;14.57;2.90;;;6.20;99.90;;;;;;5035723;28;20554;-62
2022/01/09 06:46:02;;;;;;;21.37;3.53;;;6.20;99.90;;;;;;5035687;28;20443;-62
2022/01/09 06:48:29;;;;;;;13.37;2.97;;;6.20;99.90;;;;;;5035722;28;20443;-62
2022/01/09 06:50:56;;;;;;;14.80;3.50;;;6.20;99.90;;;;;;5035228;28;20458;-62
2022/01/09 06:53:24;;;;;;;12.33;2.90;;;6.30;99.90;;;;;;5035560;28;20522;-62
2022/01/09 06:55:51;;;;;;;9.97;3.00;;;6.20;99.90;;;;;;5035375;28;20478;-62
2022/01/09 06:58:21;;;;;;;11.27;3.00;;;6.20;99.90;;;;;;5035507;28;20446;-62
2022/01/09 07:00:48;;;;;;;7.37;2.27;;;6.20;99.90;;;;;;5035347;28;20457;-61
2022/01/09 07:03:15;;;;;;;8.57;2.90;;;6.20;99.90;;;;;;5035435;28;20478;-62
2022/01/09 07:05:42;;;;;;;11.33;3.43;;;6.20;99.90;;;;;;5035065;28;20512;-62
2022/01/09 07:08:08;;;;;;;10.17;2.77;;;6.10;99.90;;;;;;5034994;28;20926;-62
2022/01/09 07:10:37;;;;;;;13.57;3.40;;;6.10;99.90;;;;;;5034953;28;20449;-62
2022/01/09 07:13:04;;;;;;;9.83;2.73;;;6.10;99.90;;;;;;5034907;28;20973;-62
2022/01/09 07:15:31;;;;;;;13.00;3.50;;;6.10;99.90;;;;;;5035128;28;20486;-62
2022/01/09 07:17:58;;;;;;;13.77;2.93;;;6.10;99.90;;;;;;5035029;28;20446;-62
2022/01/09 07:20:24;;;;;;;14.63;3.90;;;6.10;99.90;;;;;;5035074;28;20918;-62
2022/01/09 07:22:51;;;;;;;12.83;3.20;;;6.10;99.90;;;;;;5034800;28;20540;-62
2022/01/09 07:25:18;;;;;;;15.90;3.33;;;6.10;99.90;;;;;;5035192;28;20450;-62
2022/01/09 07:27:46;;;;;;;10.33;3.90;;;6.10;99.90;;;;;;5035113;28;20461;-62
2022/01/09 07:30:13;;;;;;;17.90;3.57;;;6.10;99.90;;;;;;5035003;28;20460;-62
2022/01/09 07:32:40;;;;;;;14.97;3.40;;;6.10;99.90;;;;;;5035134;28;20467;-62
2022/01/09 07:35:07;;;;;;;13.67;3.87;;;6.10;99.90;;;;;;5034582;28;20485;-62
2022/01/09 07:37:34;;;;;;;17.07;3.90;;;6.10;99.90;;;;;;5034416;28;20979;-62
2022/01/09 07:40:02;;;;;;;17.33;3.90;;;6.10;99.90;;;;;;5034744;28;20435;-62
2022/01/09 07:42:29;;;;;;;9.00;3.53;;;6.10;99.90;;;;;;5034581;28;20831;-61
2022/01/09 07:44:57;;;;;;;12.50;3.27;;;6.10;99.90;;;;;;5035066;28;20427;-62
2022/01/09 07:47:24;;;;;;;9.40;2.60;;;6.00;99.90;;;;;;5034219;28;20545;-61
2022/01/09 07:49:50;;;;;;;9.87;2.90;;;6.00;99.90;;;;;;5034549;28;20435;-61
2022/01/09 07:52:17;;;;;;;17.13;3.10;;;6.00;99.90;;;;;;5034269;28;20489;-62
2022/01/09 07:54:44;;;;;;;17.60;3.87;;;6.00;99.90;;;;;;5034375;28;20462;-61
2022/01/09 07:57:11;;;;;;;9.70;3.27;;;6.00;99.90;;;;;;5034092;28;20815;-61
2022/01/09 07:59:37;;;;;;;16.63;2.73;;;6.00;99.90;;;;;;5034335;28;20477;-62
2022/01/09 08:02:36;;;;;;;14.80;3.37;;;5.90;99.90;;;;;;5034177;28;20493;-63
2022/01/09 08:05:03;;;;;;;6.50;2.77;;;5.90;99.90;;;;;;5033847;28;20905;-64
2022/01/09 08:07:30;;;;;;;7.38;3.20;;;5.80;99.90;;;;;;5033092;28;20911;-63
2022/01/09 08:09:57;;;;;;;6.30;2.90;;;5.90;99.90;;;;;;5034405;28;20207;-63
2022/01/09 08:12:23;;;;;;;11.17;3.20;;;5.90;99.90;;;;;;5033767;28;21055;-63
2022/01/09 08:14:50;;;;;;;15.97;2.67;;;5.90;99.90;;;;;;5033980;28;20469;-63
2022/01/09 08:17:17;;;;;;;12.13;3.33;;;5.90;99.90;;;;;;5033706;28;20936;-63
2022/01/09 08:19:45;;;;;;;10.20;3.87;;;5.90;99.90;;;;;;5033878;28;20936;-63
2022/01/09 08:22:12;;;;;;;9.57;2.90;;;5.80;99.90;;;;;;5033696;28;20470;-63
2022/01/09 08:24:39;;;;;;;10.73;4.10;;;5.90;99.90;;;;;;5034010;28;20811;-63
2022/01/09 08:27:07;;;;;;;12.03;3.00;;;5.90;99.90;;;;;;5033796;28;20865;-63
2022/01/09 08:29:34;;;;;;;11.13;3.57;;;5.80;99.90;;;;;;5033879;28;20454;-63
2022/01/09 08:32:01;;;;;;;10.80;3.30;;;5.80;99.90;;;;;;5033763;28;20470;-63
2022/01/09 08:34:28;;;;;;;10.53;3.53;;;5.80;99.90;;;;;;5033686;28;20446;-63
2022/01/09 08:36:56;;;;;;;16.10;2.73;;;5.80;99.90;;;;;;5033688;28;20493;-63
2022/01/09 08:39:23;;;;;;;11.97;3.20;;;5.80;99.90;;;;;;5033659;28;20457;-63
2022/01/09 08:41:49;;;;;;;15.30;3.47;;;5.80;99.90;;;;;;5033298;28;20434;-63
2022/01/09 08:44:16;;;;;;;7.63;2.77;;;5.80;99.90;;;;;;5033534;28;20442;-63
2022/01/09 08:46:43;;;;;;;8.27;2.90;;;5.80;99.90;;;;;;5033758;28;20840;-63
2022/01/09 08:49:10;;;;;;;9.63;3.20;;;5.80;99.90;;;;;;5033430;28;20454;-63
2022/01/09 08:51:36;;;;;;;10.63;4.43;;;5.90;99.90;;;;;;5033441;28;20449;-64
2022/01/09 08:54:04;;;;;;;7.83;3.47;;;5.90;99.90;;;;;;5033416;28;20457;-63
2022/01/09 08:56:32;;;;;;;9.07;4.20;;;6.00;99.90;;;;;;5033391;28;20478;-63
2022/01/09 08:59:01;;;;;;;12.67;3.03;;;6.00;99.90;;;;;;5033079;28;21019;-62
2022/01/09 09:01:27;;;;;;;13.13;3.90;;;6.00;99.90;;;;;;5033610;28;20458;-62
2022/01/09 09:03:54;;;;;;;11.13;3.17;;;6.00;99.90;;;;;;5032755;28;20473;-63
2022/01/09 09:06:21;;;;;;;9.30;4.60;;;6.00;99.90;;;;;;5033582;28;20442;-63
2022/01/09 09:08:48;;;;;;;14.10;3.40;;;6.00;99.90;;;;;;5033352;28;20446;-63
2022/01/09 09:11:17;;;;;;;13.83;4.47;;;6.00;99.90;;;;;;5033456;28;20439;-63
2022/01/09 09:13:44;;;;;;;10.33;4.03;;;6.00;99.90;;;;;;5033119;28;20470;-62
2022/01/09 09:16:10;;;;;;;11.70;3.90;;;6.00;99.90;;;;;;5033604;28;20888;-62
2022/01/09 09:18:39;;;;;;;9.13;3.30;;;6.10;99.90;;;;;;5033220;28;20493;-62
2022/01/09 09:21:06;;;;;;;8.17;3.37;;;6.10;99.90;;;;;;5033257;28;20505;-62
2022/01/09 09:23:32;;;;;;;9.73;4.10;;;6.20;99.90;;;;;;5032850;28;20486;-63
2022/01/09 09:25:59;;;;;;;9.80;3.77;;;6.20;99.90;;;;;;5033187;28;20446;-63
2022/01/09 09:28:30;;;;;;;7.60;3.90;;;6.20;99.90;;;;;;5033206;28;20461;-63
2022/01/09 09:30:57;;;;;;;10.17;4.17;;;6.30;99.90;;;;;;5032919;28;20442;-62
2022/01/09 09:33:23;;;;;;;10.23;4.67;;;6.20;99.90;;;;;;5032998;28;20471;-63
2022/01/09 09:35:52;;;;;;;10.10;5.17;;;6.20;99.90;;;;;;5033031;28;20485;-62
2022/01/09 09:38:19;;;;;;;9.30;4.40;;;6.20;99.90;;;;;;5032741;28;20961;-62
2022/01/09 09:40:45;;;;;;;11.33;4.50;;;6.20;99.90;;;;;;5033001;28;20451;-62
2022/01/09 09:43:12;;;;;;;17.90;5.80;;;6.20;99.90;;;;;;5032993;28;20470;-62
2022/01/09 09:45:40;;;;;;;13.63;5.40;;;6.30;99.90;;;;;;5032637;28;20803;-62
2022/01/09 09:50:56;;;;;;;11.30;4.47;;;6.20;99.90;;;;;;5032333;28;20442;-62
2022/01/09 09:53:23;;;;;;;9.00;4.47;;;6.20;99.90;;;;;;5032523;28;20468;-62
2022/01/09 09:55:53;;;;;;;9.50;4.03;;;6.20;99.90;;;;;;5033074;28;20469;-62
2022/01/09 09:58:21;;;;;;;8.13;4.53;;;6.20;99.90;;;;;;5032858;28;20447;-62
2022/01/09 10:00:54;;;;;;;9.30;4.40;;;6.20;99.90;;;;;;5032653;28;20457;-62
2022/01/09 10:03:27;;;;;;;14.30;4.23;;;6.20;99.90;;;;;;5032906;28;20470;-62
2022/01/09 10:05:54;;;;;;;12.50;4.07;;;6.30;99.90;;;;;;5032883;28;20434;-62
2022/01/09 10:08:21;;;;;;;6.10;3.00;;;6.40;99.90;;;;;;5032826;28;20811;-62
2022/01/09 10:10:48;;;;;;;12.50;3.70;;;6.50;99.90;;;;;;5032883;28;20431;-62
2022/01/09 10:13:17;;;;;;;10.47;5.23;;;6.50;99.90;;;;;;5032415;28;20467;-62
2022/01/09 10:15:48;;;;;;;8.40;4.23;;;6.50;99.90;;;;;;5035171;28;20513;-62
2022/01/09 10:18:39;;;;;;;7.33;3.47;;;6.50;99.90;;;;;;5036652;28;20437;-62
2022/01/09 10:21:25;;;;;;;7.97;3.83;;;6.50;99.90;;;;;;5036208;28;20450;-62
2022/01/09 10:24:00;;;;;;;11.00;4.10;;;6.50;99.90;;;;;;5035797;28;20489;-63
2022/01/09 10:26:28;;;;;;;10.10;4.37;;;6.50;99.90;;;;;;5036154;28;20495;-62
2022/01/09 10:28:55;;;;;;;14.00;3.77;;;6.50;99.90;;;;;;5036235;28;20454;-61
2022/01/09 10:31:21;;;;;;;8.60;4.30;;;6.40;99.90;;;;;;5036081;28;20450;-62
2022/01/09 10:34:06;;;;;;;11.23;4.20;;;6.40;99.90;;;;;;5035688;28;20980;-65
2022/01/09 10:36:37;;;;;;;15.67;5.10;;;6.50;99.90;;;;;;5036089;28;20902;-62
2022/01/09 10:39:06;;;;;;;9.50;4.20;;;6.50;99.90;;;;;;5036006;28;20431;-64
2022/01/09 10:41:47;;;;;;;12.20;5.30;;;6.50;99.90;;;;;;5035993;28;20457;-63
2022/01/09 10:44:14;;;;;;;11.50;4.10;;;6.60;99.90;;;;;;5035993;28;20446;-62
2022/01/09 10:46:41;;;;;;;10.73;4.37;;;6.60;99.90;;;;;;5035533;28;20477;-62
2022/01/09 10:49:13;;;;;;;12.20;4.57;;;6.60;99.90;;;;;;5035406;28;20450;-62
2022/01/09 10:51:41;;;;;;;7.10;4.03;;;6.70;99.90;;;;;;5035658;28;20427;-63
2022/01/09 10:54:07;;;;;;;7.33;3.50;;;6.80;99.90;;;;;;5035396;28;20458;-61
2022/01/09 10:56:34;;;;;;;8.77;3.70;;;6.80;99.90;;;;;;5035527;28;20462;-62
2022/01/09 10:59:01;;;;;;;13.57;3.33;;;6.90;99.90;;;;;;5035438;28;20855;-62
2022/01/09 11:01:28;;;;;;;9.57;3.87;;;7.00;99.90;;;;;;5035424;28;20521;-62
2022/01/09 11:03:57;;;;;;;5.30;3.10;;;7.00;99.90;;;;;;5035328;28;20477;-62
2022/01/09 11:06:27;;;;;;;9.73;4.83;;;7.10;99.90;;;;;;5035312;28;20449;-62
2022/01/09 11:08:57;;;;;;;10.73;4.03;;;7.10;99.90;;;;;;5035002;28;20441;-61
2022/01/09 11:11:28;;;;;;;15.50;5.37;;;7.10;99.90;;;;;;5035168;28;21072;-62
2022/01/09 11:13:57;;;;;;;9.47;3.90;;;7.10;99.90;;;;;;5034944;28;21042;-62
2022/01/09 11:16:36;;;;;;;7.17;3.40;;;7.00;99.90;;;;;;5035177;28;20486;-62
2022/01/09 11:19:05;;;;;;;5.87;4.00;;;7.00;99.90;;;;;;5035187;28;20435;-62
2022/01/09 11:21:34;;;;;;;8.17;4.10;;;7.10;99.90;;;;;;5035412;28;20453;-62
2022/01/09 11:24:22;;;;;;;6.73;3.87;;;7.10;99.90;;;;;;5034766;28;20462;-62
2022/01/09 11:26:54;;;;;;;8.27;3.80;;;7.10;99.90;;;;;;5034587;28;20431;-62
2022/01/09 11:29:29;;;;;;;9.90;4.60;;;7.20;99.90;;;;;;5034705;28;20426;-62
2022/01/09 11:32:03;;;;;;;8.47;3.50;;;7.40;99.90;;;;;;5034937;28;20465;-62
2022/01/09 11:38:02;;;;;;;6.50;3.07;;;7.60;99.90;;;;;;5035058;28;20595;-62
2022/01/09 11:40:31;;;;;;;11.07;3.33;;;7.90;99.90;;;;;;5034641;28;20434;-62
2022/01/09 11:43:07;;;;;;;5.97;2.33;;;8.10;99.90;;;;;;5034542;28;20554;-62
2022/01/09 11:45:45;;;;;;;6.57;2.93;;;8.30;99.90;;;;;;5034666;28;20434;-62
2022/01/09 11:48:13;;;;;;;7.00;3.10;;;8.40;99.90;;;;;;5034585;28;20448;-62
2022/01/09 11:51:10;;;;;;;7.30;3.33;;;8.60;99.90;;;;;;5034522;28;20442;-62
2022/01/09 11:53:59;;;;;;;12.77;3.70;;;8.50;99.90;;;;;;5034367;28;20815;-62
2022/01/09 11:56:46;;;;;;;8.30;3.90;;;8.30;99.90;;;;;;5034424;28;20474;-62
2022/01/09 11:59:21;;;;;;;14.33;4.33;;;8.10;99.90;;;;;;5023314;28;20450;-62
2022/01/09 12:01:49;;;;;;;11.30;4.00;;;8.10;99.90;;;;;;5033892;28;20962;-62
2022/01/09 12:04:54;;;;;;;11.43;4.03;;;8.10;99.90;;;;;;5034384;28;20446;-62
2022/01/09 12:08:03;;;;;;;11.95;4.00;;;8.00;99.90;;;;;;5015172;28;20511;-62
2022/01/09 12:10:50;;;;;;;18.87;4.67;;;7.90;99.90;;;;;;5034331;28;20554;-62
2022/01/09 12:16:50;;;;;;;13.30;5.30;;;7.90;99.90;;;;;;4897942;28;20496;-62
2022/01/09 12:20:03;;;;;;;9.00;3.60;;;7.80;99.90;;;;;;5034000;28;20423;-62
2022/01/09 12:22:53;;;;;;;10.37;3.20;;;7.70;99.90;;;;;;4972810;28;20529;-62
2022/01/09 12:25:42;;;;;;;12.03;3.70;;;7.60;99.90;;;;;;5033644;28;20970;-62
2022/01/09 12:28:10;;;;;;;9.20;3.20;;;7.60;99.90;;;;;;5033930;28;20438;-62
2022/01/09 12:30:47;;;;;;;10.23;3.77;;;7.60;99.90;;;;;;5033833;28;20438;-62
2022/01/09 12:33:16;;;;;;;10.10;4.57;;;7.60;99.90;;;;;;5033429;28;20473;-62
2022/01/09 12:35:45;;;;;;;11.60;4.90;;;7.70;99.90;;;;;;5033616;28;21024;-62
2022/01/09 12:38:15;;;;;;;8.67;3.80;;;7.70;99.90;;;;;;5032904;28;20522;-63
2022/01/09 12:40:44;;;;;;;14.13;4.40;;;7.80;99.90;;;;;;5033487;28;20952;-62
2022/01/09 12:43:12;;;;;;;7.23;4.07;;;7.80;99.90;;;;;;5033693;28;20474;-62
2022/01/09 12:45:43;;;;;;;10.97;4.13;;;7.70;99.90;;;;;;5033599;28;20453;-62
2022/01/09 12:48:18;;;;;;;9.93;3.50;;;7.70;99.90;;;;;;5033671;28;20441;-62
2022/01/09 12:50:45;;;;;;;13.47;4.10;;;7.60;99.90;;;;;;5033607;28;20488;-63
2022/01/09 12:53:13;;;;;;;14.63;5.38;;;7.60;99.90;;;;;;5032784;28;20441;-62
2022/01/09 12:55:55;;;;;;;12.67;4.43;;;7.60;99.90;;;;;;5033550;28;20286;-62
2022/01/09 12:58:23;;;;;;;12.03;4.10;;;7.50;99.90;;;;;;5033606;28;20485;-62
2022/01/09 13:00:50;;;;;;;14.33;4.40;;;7.30;99.90;;;;;;5033639;28;20446;-63
2022/01/09 13:03:19;;;;;;;8.47;4.80;;;7.20;99.90;;;;;;5033520;28;20466;-64
2022/01/09 13:05:53;;;;;;;11.60;4.30;;;7.20;99.90;;;;;;5033543;28;20450;-63
2022/01/09 13:08:20;;;;;;;9.60;4.37;;;7.20;99.90;;;;;;5033670;28;20430;-63
2022/01/09 13:10:58;;;;;;;8.53;4.17;;;7.20;99.90;;;;;;5033495;28;20437;-64